エディンバラ の空港の天気 - METARとTAF

エディンバラ空港 ( EGPH / EDI ) - イギリス エディンバラ
飛行場実況気象(Metar)
観測時間11/30 10:50 GMT (11/30 10:50 UTC)
風向・風速西 7m/s
視程10km以上
天気現象
少しの雲 雲底高度 370m
気温11℃
湿度87%
気圧1013hPa
METAREGPH 301050Z 26013KT 9999 FEW012 11/09 Q1013
過去の天気等 Google飛行場航空写真 Wunderground天気予報

過去48時間のMETAR

飛行場予報(TAF)
発表時間: 11/30 05:03 GMT (11/30 05:03 UTC)
予報対象時間: 30日6時 GMT ~ 1日6時 GMT
風向・風速南西 7m/s
視程10km以上
全天の4割程度の雲 雲底高度 490m
30日6時 GMT ~ 30日13時 GMT に一時的に
視程7000m
天気現象弱い雨
全天の8割程度の雲 雲底高度 370m
30日6時 GMT ~ 30日12時 GMT に 確率 30% で一時的に
風向・風速西南西 9m/s 瞬間風速 14m/s
視程4000m
天気現象雨霧雨
全天の8割程度の雲 雲底高度 240m
30日11時 GMT ~ 30日14時 GMT に徐々に
風向・風速西北西 5m/s
30日12時 GMT ~ 30日15時 GMT に 確率 30% で一時的に
風向・風速西北西 8m/s 瞬間風速 13m/s
TAF EGPH 300503Z 3006/0106 23014KT 9999 SCT016
TEMPO 3006/3013 7000 -RA BKN012
PROB30 TEMPO 3006/3012 24018G28KT 4000 RADZ BKN008
BECMG 3011/3014 29009KT
PROB30 TEMPO 3012/3015 30015G25KT